Holyoke AP, Holyoke, CO, CO

5:06 PM MST on November 18, 2019 (GMT -0700)
Holyoke Municipal

Weather History for KHEQ - October, 2019

Change the Weather History Date:

Monday, October 21, 2019

  Actual Average Record
Temperature  
Mean Temperature 43 °F -  
Max Temperature 53 °F 64 °F 84 °F (2014)
Min Temperature 33 °F 33 °F 33 °F (2013)
Degree Days  
Heating Degree Days 22    
Moisture  
Dew Point 24 °F    
Average Humidity 49    
Maximum Humidity 75    
Minimum Humidity 21    
Precipitation  
Precipitation 0.00 in - - ()
Sea Level Pressure  
Sea Level Pressure 29.91 in    
Wind  
Wind Speed 19 mph ()    
Max Wind Speed 34 mph    
Max Gust Speed 48 mph    
Visibility 10.0 miles    
Events      
Averages and records for this station are not official NWS values.
T = Trace of Precipitation, MM = Missing Value Source: Averaged Metar Reports

Daily Weather History Graph

Daily Weather History Graph

Search for Another Location

Airport or City:

Astronomy

Oct. 21, 2019 Rise Set
Actual Time 7:06 AM MDT 6:00 PM MDT
Civil Twilight 6:38 AM MDT 6:28 PM MDT
Nautical Twilight 6:06 AM MDT 6:59 PM MDT
Astronomical Twilight 5:35 AM MDT 7:31 PM MDT
Moon No Moon Rise 2:27 PM MDT (10/21)
Length of Visible Light 11h 49m
Length of Day
10h 53m
Waning Gibbous, 47% of the Moon is Illuminated
Oct 21
Waning Gibbous
Oct 27
New
Nov 4
First Quarter
Nov 12
Full
Nov 19
Last Quarter

Hourly Weather History & Observations

Time (MDT) Temp. Windchill Dew Point Humidity Pressure Visibility Wind Dir Wind Speed Gust Speed Precip Events Conditions
12:10 AM 42.8 °F 33.8 °F 32.0 °F 66% 29.77 in 10.0 mi WNW 21.9 mph 38.0 mph N/A   Clear
12:30 AM 41.0 °F 31.9 °F 32.0 °F 70% 29.77 in 10.0 mi NW 19.6 mph 31.1 mph N/A   Clear
12:50 AM 41.0 °F 31.1 °F 32.0 °F 70% 29.77 in 10.0 mi WNW 23.0 mph 29.9 mph N/A   Clear
1:10 AM 41.0 °F 32.5 °F 32.0 °F 70% 29.77 in 10.0 mi WNW 17.3 mph 33.4 mph N/A   Clear
1:30 AM 41.0 °F 31.9 °F 32.0 °F 70% 29.77 in 10.0 mi WNW 19.6 mph 27.6 mph N/A   Clear
1:50 AM 41.0 °F 31.1 °F 32.0 °F 70% 29.77 in 10.0 mi WNW 23.0 mph 33.4 mph N/A   Clear
2:10 AM 41.0 °F 31.1 °F 32.0 °F 70% 29.77 in 10.0 mi WNW 23.0 mph 34.5 mph N/A   Clear
2:30 AM 41.0 °F 31.4 °F 32.0 °F 70% 29.78 in 10.0 mi WNW 21.9 mph 33.4 mph N/A   Clear
2:50 AM 41.0 °F 32.5 °F 32.0 °F 70% 29.78 in 10.0 mi NW 17.3 mph 34.5 mph N/A   Clear
3:10 AM 41.0 °F 31.4 °F 32.0 °F 70% 29.77 in 10.0 mi NW 21.9 mph 32.2 mph N/A   Clear
3:30 AM 41.0 °F 32.2 °F 32.0 °F 70% 29.78 in 10.0 mi NW 18.4 mph 23.0 mph N/A   Clear
3:50 AM 39.2 °F 29.8 °F 32.0 °F 75% 29.79 in 10.0 mi WNW 18.4 mph 26.5 mph N/A   Clear
4:15 AM 41.0 °F 31.6 °F 32.0 °F 70% 29.79 in 10.0 mi WNW 20.7 mph 33.4 mph N/A   Clear
4:35 AM 41.0 °F 31.1 °F 30.2 °F 65% 29.79 in 10.0 mi WNW 23.0 mph 31.1 mph N/A   Clear
4:55 AM 41.0 °F 30.7 °F 30.2 °F 65% 29.80 in 10.0 mi WNW 25.3 mph 33.4 mph N/A   Clear
5:10 AM 41.0 °F 31.1 °F 30.2 °F 65% 29.80 in 10.0 mi WNW 23.0 mph 34.5 mph N/A   Clear
5:35 AM 39.2 °F 28.7 °F 30.2 °F 70% 29.81 in 10.0 mi WNW 23.0 mph 33.4 mph N/A   Clear
5:55 AM 39.2 °F 28.0 °F 30.2 °F 70% 29.81 in 10.0 mi WNW 26.5 mph 33.4 mph N/A   Clear
6:15 AM 37.4 °F 27.5 °F 28.4 °F 70% 29.81 in 10.0 mi WNW 18.4 mph 29.9 mph N/A   Clear
6:35 AM 37.4 °F 28.2 °F 28.4 °F 70% 29.81 in 10.0 mi NW 16.1 mph 32.2 mph N/A   Clear
6:55 AM 37.4 °F 27.2 °F 28.4 °F 70% 29.81 in 10.0 mi WNW 19.6 mph 31.1 mph N/A   Clear
7:10 AM 37.4 °F 27.5 °F 28.4 °F 70% 29.81 in 10.0 mi NW 18.4 mph 26.5 mph N/A   Clear
7:30 AM 37.4 °F 26.9 °F 28.4 °F 70% 29.82 in 10.0 mi WNW 20.7 mph 27.6 mph N/A   Clear
7:50 AM 37.4 °F 27.2 °F 28.4 °F 70% 29.83 in 10.0 mi NW 19.6 mph 27.6 mph N/A   Clear
8:10 AM 41.0 °F 31.9 °F 28.4 °F 61% 29.83 in 10.0 mi WNW 19.6 mph 27.6 mph N/A   Clear
8:30 AM 41.0 °F 31.6 °F 28.4 °F 61% 29.84 in 10.0 mi NW 20.7 mph 32.2 mph N/A   Clear
8:50 AM 42.8 °F 33.1 °F 26.6 °F 53% 29.85 in 10.0 mi NW 25.3 mph 33.4 mph N/A   Clear
9:10 AM 42.8 °F 33.1 °F 23.0 °F 46% 29.86 in 10.0 mi NW 25.3 mph 40.3 mph N/A   Clear
9:30 AM 44.6 °F 34.7 °F 21.2 °F 39% 29.87 in 10.0 mi NNW 29.9 mph 41.4 mph N/A   Clear
9:50 AM 46.4 °F 38.3 °F 19.4 °F 34% 29.87 in 10.0 mi NNW 23.0 mph 39.1 mph N/A   Clear
10:10 AM 46.4 °F 37.9 °F 17.6 °F 32% 29.88 in 10.0 mi NW 25.3 mph 39.1 mph N/A   Clear
10:30 AM 48.2 °F - 15.8 °F 27% 29.89 in 10.0 mi NW 31.1 mph 36.8 mph N/A   Clear
10:50 AM 50.0 °F - 15.8 °F 26% 29.89 in 10.0 mi NNW 28.8 mph 40.3 mph N/A   Clear
11:10 AM 51.8 °F - 14.0 °F 22% 29.89 in 10.0 mi NW 26.5 mph 41.4 mph N/A   Clear
11:30 AM 53.6 °F - 14.0 °F 21% 29.89 in 10.0 mi NNW 34.5 mph 42.6 mph N/A   Clear
11:50 AM 53.6 °F - 14.0 °F 21% 29.90 in 10.0 mi NNW 28.8 mph 43.7 mph N/A   Clear
12:10 PM 53.6 °F - 17.6 °F 24% 29.90 in 10.0 mi NNW 29.9 mph 48.3 mph N/A   Clear
12:30 PM 53.6 °F - 17.6 °F 24% 29.91 in 10.0 mi NW 27.6 mph 48.3 mph N/A   Clear
12:50 PM 53.6 °F - 15.8 °F 22% 29.91 in 10.0 mi NNW 33.4 mph 46.0 mph N/A   Clear
1:15 PM 53.6 °F - 15.8 °F 22% 29.92 in 10.0 mi NW 25.3 mph 40.3 mph N/A   Clear
1:35 PM 53.6 °F - 15.8 °F 22% 29.92 in 10.0 mi NW 25.3 mph 41.4 mph N/A   Clear
1:55 PM 53.6 °F - 15.8 °F 22% 29.92 in 10.0 mi NNW 29.9 mph 36.8 mph N/A   Clear
2:10 PM 53.6 °F - 15.8 °F 22% 29.92 in 10.0 mi NW 24.2 mph 39.1 mph N/A   Clear
2:30 PM 53.6 °F - 15.8 °F 22% 29.93 in 10.0 mi NNW 25.3 mph 34.5 mph N/A   Clear
2:50 PM 53.6 °F - 17.6 °F 24% 29.94 in 10.0 mi NNW 26.5 mph 38.0 mph N/A   Clear
3:10 PM 53.6 °F - 17.6 °F 24% 29.95 in 10.0 mi NNW 19.6 mph 33.4 mph N/A   Clear
3:30 PM 53.6 °F - 17.6 °F 24% 29.95 in 10.0 mi NNW 21.9 mph 31.1 mph N/A   Clear
3:50 PM 53.6 °F - 17.6 °F 24% 29.96 in 10.0 mi NNW 26.5 mph 34.5 mph N/A   Clear
4:10 PM 53.6 °F - 17.6 °F 24% 29.96 in 10.0 mi NNW 18.4 mph 31.1 mph N/A   Clear
4:30 PM 51.8 °F - 19.4 °F 28% 29.97 in 10.0 mi NNW 21.9 mph 26.5 mph N/A   Clear
4:50 PM 51.8 °F - 19.4 °F 28% 29.98 in 10.0 mi NNW 21.9 mph 29.9 mph N/A   Clear
5:10 PM 51.8 °F - 19.4 °F 28% 29.99 in 10.0 mi NW 16.1 mph 27.6 mph N/A   Clear
5:30 PM 48.2 °F - 19.4 °F 32% 30.00 in 10.0 mi NNW 15.0 mph 19.6 mph N/A   Clear
5:50 PM 46.4 °F 39.8 °F 19.4 °F 34% 30.00 in 10.0 mi NNW 16.1 mph 24.2 mph N/A   Scattered Clouds
6:15 PM 46.4 °F 38.7 °F 19.4 °F 34% 30.01 in 10.0 mi NW 20.7 mph 26.5 mph N/A   Clear
6:35 PM 46.4 °F 39.8 °F 21.2 °F 37% 30.01 in 10.0 mi NW 16.1 mph - N/A   Scattered Clouds
6:55 PM 46.4 °F 41.5 °F 21.2 °F 37% 30.02 in 10.0 mi NW 10.4 mph 17.3 mph N/A   Clear
7:10 PM 44.6 °F 39.7 °F 21.2 °F 39% 30.03 in 10.0 mi NW 9.2 mph - N/A   Clear
7:30 PM 44.6 °F 39.7 °F 23.0 °F 43% 30.03 in 10.0 mi NW 9.2 mph - N/A   Clear
7:50 PM 42.8 °F 38.0 °F 23.0 °F 46% 30.03 in 10.0 mi NW 8.1 mph - N/A   Clear
8:10 PM 42.8 °F 38.0 °F 24.8 °F 49% 30.03 in 10.0 mi NW 8.1 mph - N/A   Clear
8:30 PM 41.0 °F 35.8 °F 24.8 °F 53% 30.05 in 10.0 mi WNW 8.1 mph - N/A   Clear
8:50 PM 37.4 °F 30.8 °F 24.8 °F 60% 30.05 in 10.0 mi West 9.2 mph - N/A   Clear
9:10 PM 35.6 °F 28.6 °F 24.8 °F 65% 30.06 in 10.0 mi West 9.2 mph - N/A   Clear
9:30 PM 33.8 °F 26.4 °F 23.0 °F 65% 30.06 in 10.0 mi West 9.2 mph - N/A   Clear
9:50 PM 33.8 °F 26.4 °F 23.0 °F 65% 30.07 in 10.0 mi West 9.2 mph - N/A   Clear
10:10 PM 33.8 °F 25.8 °F 24.8 °F 70% 30.08 in 10.0 mi West 10.4 mph - N/A   Clear
10:30 PM 33.8 °F 26.4 °F 23.0 °F 65% 30.08 in 10.0 mi West 9.2 mph - N/A   Clear
10:50 PM 33.8 °F 26.4 °F 23.0 °F 65% 30.09 in 10.0 mi West 9.2 mph - N/A   Clear
11:10 PM 33.8 °F 26.4 °F 23.0 °F 65% 30.09 in 10.0 mi West 9.2 mph - N/A   Clear
11:30 PM 33.8 °F 25.8 °F 23.0 °F 65% 30.09 in 10.0 mi West 10.4 mph - N/A   Clear
11:50 PM 33.8 °F 25.8 °F 23.0 °F 65% 30.10 in 10.0 mi West 10.4 mph - N/A   Clear